Marcus G. Langseth — WDC6698 — position and weather

sailwx.info

Track history (hours):
 
Tides and Currents Weather Stations Pressure Air Temp Water Temp Dewpoint Dewpoint Depression Visibility Wind Speed Wind Dir Waves Ship Positions

Oceanographic research ship Marcus G. Langseth (USA)

Detailed information on ship capabilities available from ARCUS's ALIAS (Arctic Logistics Information and Support) project.

Owner: Lamont Doherty Earth Observatory-Columbia University, Palisades, NY. More information available from US FCC via Universal Licensing System and Coast Guard Vessel Documentation Center.

Last reported at 2019-Jun-19 14:00 UTC. Time now 2019-Jun-19 14:46 UTC.
Position N 54°18' W 155°54'.

Length 72 m; draft 6.4 m.

Type: Ship. MMSI: 367059880.

Wind from 250 at 12 knots

Barometer 1023.5 mb
Air temperature 8.7 ° C
Dewpoint 6.5 ° C
Water temperature 8.6 ° C

Date/timePositionNaut miles runAvg speedWind from/ knotsBaromVisibWave heightAir tempDewpointWater temp
2019-Jun-19 14:00N 54°18' W 155°54'4 3.5 250 / 121023.5 8.7 6.5 8.6
2019-Jun-19 13:00N 54°18' W 155°48'7 6.9 250 / 131023.4 8.6 6.4 8.6
2019-Jun-19 12:00N 54°12' W 155°42'7 7.0 250 / 141023.1 8.4 6.2 8.6
2019-Jun-19 11:00N 54°06' W 155°36'6 6.0 250 / 171023.3 8.1 5.8 8.5
2019-Jun-19 10:00N 54°00' W 155°36'4 3.5 260 / 181023.4 8.0 5.5 8.6
2019-Jun-19 09:00N 54°00' W 155°30'4 3.5 250 / 161022.7 8.5 6.1 8.6
2019-Jun-19 08:00N 54°00' W 155°24'9 9.3 250 / 201022.6 8.9 6.2 8.5
2019-Jun-19 07:00N 54°06' W 155°12'4 3.5 250 / 181022.0 9.2 6.5 8.6
2019-Jun-19 06:00N 54°06' W 155°06'6 6.0 260 / 151021.6 9.1 6.5 8.7
2019-Jun-19 05:00N 54°12' W 155°06'7 6.9 250 / 151021.0 8.7 6.4 8.7
2019-Jun-19 04:00N 54°18' W 155°12'0 0.0 250 / 201020.2 8.6 6.2 8.7
2019-Jun-19 03:00N 54°18' W 155°12'7 6.9 250 / 211019.7 8.7 6.3 8.8
2019-Jun-19 02:00N 54°24' W 155°18'7 6.9 260 / 201019.2 8.8 6.4 8.9
2019-Jun-19 01:00N 54°30' W 155°24'7 6.9 250 / 211018.7 8.9 6.4 8.8
2019-Jun-19 00:00N 54°36' W 155°30'0 0.0 260 / 171018.1 9.4 6.6 8.8
2019-Jun-18 23:00N 54°36' W 155°30'7 6.9 260 / 161017.4 9.4 6.7 8.7
2019-Jun-18 22:00N 54°42' W 155°36'7 6.9 240 / 161016.8 9.4 6.7 8.8
2019-Jun-18 21:00N 54°48' W 155°42'6 6.0 240 / 151015.9 9.3 6.8 8.9
2019-Jun-18 20:00N 54°54' W 155°42'7 6.9 240 / 151015.4 9.1 6.8 9.1
2019-Jun-18 19:00N 55°00' W 155°48'3 3.4 250 / 151015.0 9.1 6.7 8.8
2019-Jun-18 18:00N 55°00' W 155°54'7 6.9 240 / 151014.0 9.6 6.9 8.9
2019-Jun-18 17:00N 55°06' W 156°00'6 6.0 260 / 121013.6 9.9 7.0 9.1
2019-Jun-18 16:00N 55°12' W 156°00'7 6.9 250 / 121013.0 9.9 7.0 9.1
2019-Jun-18 15:00N 55°18' W 156°06'7 6.9 260 / 101012.2 9.7 6.9 9.3
2019-Jun-18 14:00N 55°24' W 156°12'7 6.9 270 / 121011.5 9.9 7.1 9.3
2019-Jun-18 13:00N 55°30' W 156°18'0 0.0 270 / 111011.1 9.7 7.0 9.1
2019-Jun-18 12:00N 55°30' W 156°18'7 6.9 280 / 101010.5 10.1 6.7 9.3
2019-Jun-18 11:00N 55°36' W 156°24'7 6.9 280 / 111009.8 10.2 6.8 9.3
2019-Jun-18 10:00N 55°42' W 156°30'0 0.0 280 / 131009.2 10.2 6.7 9.0
2019-Jun-18 09:00N 55°42' W 156°30'7 6.9 280 / 131008.6 10.0 6.7 9.1
2019-Jun-18 08:00N 55°48' W 156°36'6 6.0 310 / 141008.3 10.4 6.4 8.7
2019-Jun-18 07:00N 55°54' W 156°36'7 6.9 300 / 141007.5 10.6 6.8 9.7
2019-Jun-18 06:00N 56°00' W 156°30'6 6.0 290 / 131006.9 11.7 6.4 9.4
2019-Jun-18 05:00N 56°06' W 156°30'7 6.9 290 / 131006.2 11.7 6.3 9.6
2019-Jun-18 04:00N 56°12' W 156°36'0 0.0 310 / 131006.0 12.6 6.3 9.3
2019-Jun-18 03:00N 56°12' W 156°36'6 6.0 290 / 81005.5 10.9 6.7 9.4
2019-Jun-18 02:00N 56°18' W 156°36'6 6.0 230 / 51005.2 11.1 6.6 9.6
2019-Jun-18 01:00N 56°24' W 156°36'3 3.3 300 / 101004.8 13.1 5.0 9.6
2019-Jun-18 00:00N 56°24' W 156°30'6 6.0 310 / 71004.4 17.8 8.0 9.2
2019-Jun-17 23:00N 56°18' W 156°30'7 6.9 310 / 111004.1 11.2 6.2 9.2
2019-Jun-17 22:00N 56°12' W 156°24'7 6.9 340 / 101003.9 11.0 6.5 9.4
2019-Jun-17 21:00N 56°06' W 156°18'3 3.3 320 / 151003.4 10.5 6.0 9.5
2019-Jun-17 20:00N 56°06' W 156°12'7 6.9 310 / 181002.8 10.3 6.110.1
2019-Jun-17 19:00N 56°00' W 156°06'6 6.0 340 / 181002.8 10.5 5.8 9.0
2019-Jun-17 18:00N 55°54' W 156°06'7 6.9 1002.5 10.1 6.0 8.4
2019-Jun-17 17:00N 55°48' W 156°00'7 6.9 360 / 211001.9 9.5 6.7 8.9
2019-Jun-17 16:00N 55°42' W 155°54'0 0.0 010 / 131001.9 9.1 6.7 8.6
2019-Jun-17 15:00N 55°42' W 155°54'7 6.9 1001.7 9.0 6.6 8.9
2019-Jun-17 14:00N 55°36' W 155°48'7 6.9 350 / 181001.3 9.0 6.6 9.3
2019-Jun-17 13:00N 55°30' W 155°42'0 0.0 350 / 191000.9 8.9 6.3 9.3
2019-Jun-17 12:00N 55°30' W 155°42'7 6.9 350 / 241000.7 8.9 6.2 9.3
2019-Jun-17 11:00N 55°24' W 155°36'7 6.9 340 / 181000.7 9.2 6.5 9.3
2019-Jun-17 10:00N 55°18' W 155°30'7 6.9 350 / 171000.8 9.2 6.4 9.2
2019-Jun-17 09:00N 55°12' W 155°24'0 0.0 360 / 201001.0 8.8 6.1 9.1
2019-Jun-17 08:00N 55°12' W 155°24'7 6.9 010 / 131001.1 8.8 6.4 8.8
2019-Jun-17 07:00N 55°06' W 155°18'7 6.9 020 / 161001.0 8.9 6.5 8.8
2019-Jun-17 06:00N 55°00' W 155°12'6 6.0 020 / 111001.1 8.8 6.3 8.9
2019-Jun-17 05:00N 54°54' W 155°12'7 6.9 020 / 141001.2 8.7 6.1 9.0
2019-Jun-17 04:00N 54°48' W 155°06'7 6.9 040 / 131001.1 8.8 6.3 9.0
2019-Jun-17 03:00N 54°42' W 155°00'0 0.0 050 / 161000.9 8.8 6.5 8.9
2019-Jun-17 02:00N 54°42' W 155°00'7 6.9 060 / 131001.0 8.8 6.4 8.7
2019-Jun-17 01:00N 54°36' W 154°54'7 6.9 060 / 111001.1 8.9 6.4 8.6
2019-Jun-17 00:00N 54°30' W 154°48'7 6.9 040 / 131000.9 8.6 6.3 8.6
2019-Jun-16 23:00N 54°24' W 154°42'6 6.0 040 / 111000.9 8.8 6.0 8.6
2019-Jun-16 22:00N 54°18' W 154°42'4 3.5 060 / 111001.0 8.7 6.1 8.7
2019-Jun-16 21:00N 54°18' W 154°36'4 3.5 060 / 131000.9 8.6 6.0 8.6
2019-Jun-16 20:00N 54°18' W 154°30'7 7.0 060 / 151001.1 8.7 5.9 8.6
2019-Jun-16 19:00N 54°18' W 154°18'7 6.9 060 / 151001.1 8.7 5.7 8.5
2019-Jun-16 18:00N 54°24' W 154°12'3 3.5 070 / 131001.1 8.7 5.8 8.6
2019-Jun-16 17:00N 54°24' W 154°06'7 6.9 070 / 131000.9 8.6 5.9 8.7
2019-Jun-16 16:00N 54°18' W 154°00'6 6.0 080 / 141000.9 8.6 5.9 8.7
2019-Jun-16 15:00N 54°12' W 154°00'4 3.5 090 / 131000.9 8.5 5.6 8.7
2019-Jun-16 14:00N 54°12' W 153°54'6 6.0 100 / 141001.0 8.6 6.0 8.7
2019-Jun-16 13:00N 54°06' W 153°54'0 0.0 100 / 141000.9 8.8 6.4 8.6
2019-Jun-16 12:00N 54°06' W 153°54'6 6.0 100 / 201001.1 8.9 6.3 8.6
2019-Jun-16 11:00N 54°12' W 153°54'4 3.5 100 / 191001.2 9.0 6.4 8.7
2019-Jun-16 10:00N 54°12' W 154°00'0 0.0 100 / 211001.5 9.0 6.2 8.7
2019-Jun-16 09:00N 54°12' W 154°00'7 6.9 100 / 211001.6 9.1 6.6 8.7
2019-Jun-16 08:00N 54°18' W 154°06'6 6.0 100 / 181002.0 9.1 6.7 8.7
2019-Jun-16 07:00N 54°24' W 154°06'7 6.9 100 / 181002.1 9.1 6.5 8.7
2019-Jun-16 06:00N 54°30' W 154°12'3 3.5 100 / 181002.2 9.1 6.5 8.6
2019-Jun-16 05:00N 54°30' W 154°18'6 6.0 100 / 191002.3 9.0 6.4 8.8
2019-Jun-16 04:00N 54°36' W 154°18'7 6.9 100 / 171002.8 9.0 6.2 9.0
2019-Jun-16 03:00N 54°42' W 154°24'7 6.9 100 / 171003.3 9.2 6.4 8.7
2019-Jun-16 02:00N 54°48' W 154°30'6 6.0 110 / 141003.6 9.1 6.1 8.8
2019-Jun-16 01:00N 54°54' W 154°30'3 3.5 120 / 151003.7 9.0 5.9 8.8
2019-Jun-16 00:00N 54°54' W 154°36'7 6.9 120 / 141003.7 8.9 5.7 8.9
2019-Jun-15 23:00N 55°00' W 154°42'6 6.0 120 / 141004.1 9.4 5.4 8.8
2019-Jun-15 22:00N 55°06' W 154°42'7 6.9 120 / 151003.9 9.9 6.2 8.7
2019-Jun-15 21:00N 55°12' W 154°48'7 6.9 130 / 131004.1 10.3 6.1 8.7
2019-Jun-15 20:00N 55°18' W 154°54'3 3.4 140 / 111003.8 9.6 6.1 8.9
2019-Jun-15 19:00N 55°18' W 155°00'6 6.0 130 / 81003.8 10.6 7.4 9.2
2019-Jun-15 18:00N 55°24' W 155°00'7 6.9 150 / 111003.6 9.8 6.4 8.9
2019-Jun-15 17:00N 55°30' W 155°06'7 6.9 130 / 131003.4 9.6 7.2 9.2
2019-Jun-15 16:00N 55°36' W 155°12'7 6.9 130 / 181003.1 9.2 6.1 9.0
2019-Jun-15 15:00N 55°42' W 155°18'7 6.9 120 / 161003.2 8.7 6.4 9.1
2019-Jun-15 14:00N 55°48' W 155°24'7 6.9 130 / 151003.5 8.8 6.3 8.3
2019-Jun-15 13:00N 55°54' W 155°18'7 6.9 120 / 171003.8 9.1 5.8 8.1
2019-Jun-15 12:00N 56°00' W 155°24'7 6.9 100 / 151004.0 9.0 5.9 7.9
2019-Jun-15 11:00N 56°06' W 155°30'9 9.0 120 / 101004.0 9.8 6.3 7.1
2019-Jun-15 10:00N 56°12' W 155°42'3 3.3 100 / 171004.0 8.5 5.7 7.2
2019-Jun-15 09:00N 56°12' W 155°48'6 6.0 100 / 171004.3 8.5 5.7 7.9
2019-Jun-15 08:00N 56°18' W 155°48'7 6.9 100 / 181004.3 9.0 6.110.2
2019-Jun-15 07:00N 56°24' W 155°54'7 6.9 100 / 201004.2 9.2 6.310.6
2019-Jun-15 06:00N 56°30' W 156°00'7 6.9 100 / 201004.1 9.4 6.1 9.2
2019-Jun-15 05:00N 56°36' W 156°06'3 3.3 110 / 181004.3 9.5 6.2 9.7
2019-Jun-15 04:00N 56°36' W 156°00'9 8.9 110 / 161004.5 9.4 6.310.4
2019-Jun-15 03:00N 56°42' W 155°48'3 3.3 130 / 171004.9 9.4 6.6 9.6
2019-Jun-15 02:00N 56°42' W 155°42'3 3.3 140 / 191005.0 9.2 6.9 9.3
2019-Jun-15 01:00N 56°42' W 155°36'7 6.8 100 / 231004.1 9.4 7.4 9.4
2019-Jun-15 00:00N 56°36' W 155°30'7 6.9 100 / 241003.9 9.5 7.3 8.8
2019-Jun-14 23:00N 56°30' W 155°24'0 0.0 100 / 271003.3 9.5 7.2 8.0
2019-Jun-14 22:00N 56°30' W 155°24'7 6.9 090 / 331002.6 9.5 7.3 8.4
2019-Jun-14 21:00N 56°24' W 155°18'7 6.9 090 / 351002.7 9.4 7.1 8.9
2019-Jun-14 20:00N 56°18' W 155°12'7 6.9 090 / 321002.5 9.2 6.8 8.8
2019-Jun-14 19:00N 56°12' W 155°06'7 6.9 090 / 311002.5 9.1 6.7 8.3
2019-Jun-14 18:00N 56°06' W 155°00'7 6.9 090 / 291003.1 9.4 6.6 8.6
2019-Jun-14 17:00N 56°00' W 154°54'7 6.9 090 / 351003.3 9.4 6.8 9.1
2019-Jun-14 16:00N 55°54' W 154°48'6 6.0 080 / 321003.8 9.5 6.8 9.2
2019-Jun-14 15:00N 55°48' W 154°48'7 6.9 090 / 311004.7 9.4 6.8 9.1
2019-Jun-14 14:00N 55°42' W 154°42'3 3.4 090 / 281005.3 9.3 7.0 9.3
2019-Jun-14 13:00N 55°42' W 154°36'7 6.9 090 / 241005.9 9.1 7.0 9.2
2019-Jun-14 12:00N 55°36' W 154°30'6 6.0 090 / 251006.1 9.2 7.0 9.0
2019-Jun-14 11:00N 55°30' W 154°30'7 6.9 100 / 261006.6 9.1 6.9 8.8
2019-Jun-14 10:00N 55°24' W 154°24'7 6.9 100 / 251007.1 9.2 6.9 8.8
2019-Jun-14 09:00N 55°18' W 154°18'6 6.0 110 / 251007.6 9.1 6.8 8.5
2019-Jun-14 08:00N 55°12' W 154°18'3 3.4 110 / 241007.9 9.1 6.9 8.5
2019-Jun-14 07:00N 55°12' W 154°12'7 6.9 110 / 241008.0 9.0 6.8 8.5
2019-Jun-14 06:00N 55°06' W 154°06'7 6.9 110 / 251008.1 9.0 6.9 8.5
2019-Jun-14 05:00N 55°00' W 154°00'6 6.0 110 / 231008.5 9.0 6.9 9.1
2019-Jun-14 04:00N 54°54' W 154°00'7 6.9 110 / 221009.1 9.0 6.7 9.1
2019-Jun-14 03:00N 54°48' W 153°54'7 6.9 120 / 251009.6 9.1 6.5 8.6
2019-Jun-14 02:00N 54°42' W 153°48'7 6.9 110 / 261009.7 9.1 6.4 9.0
2019-Jun-14 01:00N 54°36' W 153°42'6 6.0 110 / 251010.1 9.0 6.3 9.0
2019-Jun-14 00:00N 54°30' W 153°42'7 7.0 120 / 231010.6 8.9 6.1 8.9
2019-Jun-13 23:00N 54°30' W 153°30'7 6.9 120 / 201011.6 9.1 5.5 9.1
2019-Jun-13 22:00N 54°36' W 153°24'3 3.5 120 / 171012.1 9.0 5.4 9.3
2019-Jun-13 21:00N 54°36' W 153°18'7 6.9 140 / 211012.5 9.0 5.2 9.4
2019-Jun-13 20:00N 54°42' W 153°12'0 0.0 150 / 161012.4 8.7 5.0 9.4
2019-Jun-13 19:00N 54°42' W 153°12'7 6.9 130 / 171012.2 8.7 5.6 9.2
2019-Jun-13 18:00N 54°48' W 153°18'7 6.9 140 / 121012.3 9.8 6.8 9.3
2019-Jun-13 17:00N 54°54' W 153°24'6 6.0 140 / 121012.5 11.8 6.6 9.5
2019-Jun-13 16:00N 55°00' W 153°24'3 3.4 170 / 121013.0 9.2 6.5 9.4
2019-Jun-13 15:00N 55°00' W 153°30'7 6.9 180 / 111013.0 9.4 7.3 9.1
2019-Jun-13 14:00N 55°06' W 153°36'6 6.0 170 / 81013.0 8.8 6.6 9.0
2019-Jun-13 13:00N 55°12' W 153°36'7 6.9 130 / 31012.9 26.311.9 8.9
2019-Jun-13 12:00N 55°18' W 153°42'7 6.9 140 / 71013.1 15.1 9.7 9.3
2019-Jun-13 11:00N 55°24' W 153°48'0 0.0 130 / 101013.0 11.4 9.2 9.4
2019-Jun-13 10:00N 55°24' W 153°48'7 6.9 130 / 101013.0 10.0 8.1 9.2
2019-Jun-13 09:00N 55°30' W 153°54'7 6.9 090 / 81013.0 9.6 7.3 9.0
2019-Jun-13 08:00N 55°36' W 154°00'6 6.0 140 / 41013.0 18.7 9.0 8.8
2019-Jun-13 07:00N 55°42' W 154°00'7 6.9 110 / 61012.8 18.0 9.4 9.1
2019-Jun-13 06:00N 55°48' W 154°06'3 3.4 130 / 41012.6 27.411.9 9.3
2019-Jun-13 05:00N 55°48' W 154°12'6 6.0 160 / 51012.7 30.213.5 9.6
2019-Jun-13 04:00N 55°54' W 154°12'7 6.9 200 / 51012.6 9.6 7.5 9.5
2019-Jun-13 03:00N 56°00' W 154°18'7 6.9 160 / 51012.7 9.5 7.1 9.1
2019-Jun-13 02:00N 56°06' W 154°24'0 0.0 100 / 51012.3 28.712.8 9.2
2019-Jun-13 01:00N 56°06' W 154°24'6 6.0 100 / 71012.4 10.5 7.4 9.2
2019-Jun-13 00:00N 56°12' W 154°24'3 3.3 140 / 71012.9 9.6 7.5 9.6
2019-Jun-12 23:00N 56°12' W 154°18'9 9.0 130 / 71013.0 9.6 7.5 9.3
2019-Jun-12 22:00N 56°18' W 154°06'3 3.3 120 / 71012.9 9.5 7.4 9.4
2019-Jun-12 21:00N 56°18' W 154°00'7 6.9 090 / 91012.4 9.4 7.5 9.3
2019-Jun-12 20:00N 56°12' W 153°54'7 6.9 080 / 81012.2 9.3 7.4 9.1
2019-Jun-12 19:00N 56°06' W 153°48'6 6.0 060 / 101011.6 9.2 7.3 9.0
2019-Jun-12 18:00N 56°00' W 153°48'3 3.4 060 / 121011.4 9.1 7.2 9.3
2019-Jun-12 17:00N 56°00' W 153°42'7 6.9 060 / 81011.2 9.2 7.4 9.3
2019-Jun-12 16:00N 55°54' W 153°36'7 6.9 030 / 111010.8 9.3 7.5 9.2
2019-Jun-12 15:00N 55°48' W 153°30'6 6.0 040 / 131010.4 9.4 7.5 9.0
2019-Jun-12 14:00N 55°42' W 153°30'7 6.9 020 / 111010.4 9.4 7.5 8.7
2019-Jun-12 13:00N 55°36' W 153°24'3 3.4 360 / 121010.2 9.3 7.5 8.8
2019-Jun-12 12:00N 55°36' W 153°18'6 6.0 360 / 91010.2 9.2 7.4 8.8
2019-Jun-12 11:00N 55°30' W 153°18'7 6.9 040 / 101010.1 9.3 7.5 9.0
2019-Jun-12 10:00N 55°24' W 153°12'7 6.9 030 / 131009.8 9.3 7.5 8.7
2019-Jun-12 09:00N 55°18' W 153°06'7 6.9 030 / 161009.0 9.3 7.5 8.7
2019-Jun-12 08:00N 55°12' W 153°00'6 6.0 020 / 151008.6 9.3 7.5 8.7
2019-Jun-12 07:00N 55°06' W 153°00'3 3.4 020 / 131008.2 9.2 7.4 8.7
2019-Jun-12 06:00N 55°06' W 152°54'7 6.9 020 / 121007.9 9.2 7.3 8.5
2019-Jun-12 05:00N 55°00' W 152°48'6 6.0 010 / 151007.6 9.2 7.3 8.7
2019-Jun-12 04:00N 54°54' W 152°48'7 6.9 360 / 121007.3 9.3 7.4 8.7
2019-Jun-12 03:00N 54°48' W 152°42'3 3.5 350 / 121007.3 9.3 7.4 8.7
2019-Jun-12 02:00N 54°48' W 152°36'7 6.9 360 / 121007.4 9.4 7.4 8.7
2019-Jun-12 01:00N 54°48' W 152°24'7 6.9 010 / 131007.4 9.5 7.5 8.7
2019-Jun-12 00:00N 54°54' W 152°18'3 3.5 010 / 141007.4 9.6 7.5 8.9
2019-Jun-11 23:00N 54°54' W 152°12'7 6.9 020 / 131007.1 9.6 7.5 8.8
2019-Jun-11 22:00N 55°00' W 152°18'7 6.9 010 / 141007.3 9.6 7.5 8.8
2019-Jun-11 21:00N 55°06' W 152°24'6 6.0 010 / 151007.2 9.5 7.3 8.8
2019-Jun-11 20:00N 55°12' W 152°24'7 6.9 010 / 161007.0 9.5 7.3 8.7
2019-Jun-11 19:00N 55°18' W 152°30'7 6.9 020 / 201006.8 9.5 7.2 9.0
2019-Jun-11 18:00N 55°24' W 152°36'7 6.9 020 / 191006.5 9.5 7.1 9.0
2019-Jun-11 17:00N 55°30' W 152°42'6 6.0 020 / 191006.6 9.4 7.0 9.0
2019-Jun-11 16:00N 55°36' W 152°42'3 3.4 030 / 191006.6 9.5 7.0 9.1
2019-Jun-11 15:00N 55°36' W 152°48'7 6.9 020 / 181006.8 9.4 6.9 9.0
2019-Jun-11 14:00N 55°42' W 152°54'6 6.0 030 / 211006.9 9.4 6.8 9.0
2019-Jun-11 13:00N 55°48' W 152°54'7 6.9 040 / 211007.2 9.3 6.7 8.9
2019-Jun-11 12:00N 55°54' W 153°00'7 6.9 040 / 191007.7 9.4 6.8 8.9
2019-Jun-11 11:00N 56°00' W 153°06'0 0.0 030 / 191007.9 9.3 6.4 8.7
2019-Jun-11 10:00N 56°00' W 153°06'7 6.9 030 / 231008.4 9.4 6.2 8.8
2019-Jun-11 09:00N 56°06' W 153°12'7 6.9 040 / 271008.9 9.8 5.8 8.9
2019-Jun-11 08:00N 56°12' W 153°18'6 6.0 040 / 231009.2 9.9 5.7 9.0
2019-Jun-11 07:00N 56°18' W 153°18'3 3.3 040 / 231009.7 9.9 5.7 9.1
2019-Jun-11 06:00N 56°18' W 153°24'6 6.0 040 / 231010.1 9.7 5.5 8.4
2019-Jun-11 05:00N 56°24' W 153°24'7 6.9 040 / 251010.5 10.0 5.3 8.6
2019-Jun-11 04:00N 56°30' W 153°30'0 0.0 050 / 251010.8 10.1 5.4 8.6
2019-Jun-11 03:00N 56°30' W 153°30'9 8.9 050 / 301011.2 10.3 5.5 8.9
2019-Jun-11 02:00N 56°36' W 153°18'3 3.3 050 / 291011.5 10.3 5.6 9.5
2019-Jun-11 01:00N 56°36' W 153°12'7 6.6 040 / 311011.7 10.0 5.4 9.9
2019-Jun-11 00:00N 56°36' W 153°00'0 0.0 050 / 351012.3 9.6 5.4 9.4
2019-Jun-10 23:00N 56°36' W 153°00'7 6.9 040 / 281012.7 9.7 5.5 9.6
2019-Jun-10 22:00N 56°30' W 152°54'7 6.9 050 / 281013.2 9.7 5.4 9.4
2019-Jun-10 21:00N 56°24' W 152°48'6 6.0 040 / 321013.3 9.5 5.3 9.2
2019-Jun-10 20:00N 56°18' W 152°48'7 6.9 040 / 251013.4 9.4 5.4 9.3
2019-Jun-10 19:00N 56°12' W 152°42'3 3.3 040 / 321013.5 9.3 5.8 9.3
2019-Jun-10 18:00N 56°12' W 152°36'6 6.0 040 / 251013.7 9.3 5.7 9.0
2019-Jun-10 17:00N 56°06' W 152°36'7 6.9 050 / 261013.6 9.3 5.3 9.1
2019-Jun-10 16:00N 56°00' W 152°30'7 6.9 050 / 261013.7 9.2 5.3 9.2
2019-Jun-10 15:00N 55°54' W 152°24'0 0.0 050 / 251013.9 9.1 5.7 9.2
2019-Jun-10 14:00N 55°54' W 152°24'7 6.9 050 / 231014.2 9.1 5.9 9.2
2019-Jun-10 13:00N 55°48' W 152°18'6 6.0 050 / 261014.4 9.2 6.0 9.2
2019-Jun-10 12:00N 55°42' W 152°18'3 3.4 050 / 251015.0 9.4 6.1 9.2
2019-Jun-10 11:00N 55°42' W 152°12'6 6.0 060 / 231015.5 9.4 5.7 9.1
2019-Jun-10 10:00N 55°36' W 152°12'7 6.9 070 / 251015.8 9.4 5.6 9.1
2019-Jun-10 09:00N 55°30' W 152°06'0 0.0 060 / 241016.1 9.4 6.1 9.0
2019-Jun-10 08:00N 55°30' W 152°06'7 6.9 060 / 261016.0 9.3 6.4 9.0
2019-Jun-10 07:00N 55°24' W 152°00'7 6.9 060 / 251016.3 9.4 6.4 8.9
2019-Jun-10 06:00N 55°18' W 151°54'6 6.0 060 / 251015.7 9.5 6.4 9.1
2019-Jun-10 05:00N 55°12' W 151°54'3 3.4 060 / 251015.6 9.5 6.2 9.1
2019-Jun-10 04:00N 55°12' W 151°48'6 6.0 060 / 261015.6 9.5 6.3 8.9
2019-Jun-10 03:00N 55°06' W 151°48'3 3.4 060 / 211016.4 9.5 6.2 9.0
2019-Jun-10 02:00N 55°06' W 151°42'7 6.9 060 / 231017.0 9.6 5.8 8.9
2019-Jun-10 01:00N 55°12' W 151°36'7 6.9 060 / 211017.7 9.6 5.8 8.9
2019-Jun-10 00:00N 55°18' W 151°30'0 0.0 060 / 231018.2 9.6 5.7 8.9
2019-Jun-09 23:00N 55°18' W 151°30'7 6.9 060 / 221018.8 9.6 5.2 8.8
2019-Jun-09 22:00N 55°24' W 151°24'6 6.0 060 / 181019.2 9.7 5.0 8.8
2019-Jun-09 21:00N 55°30' W 151°24'7 6.9 060 / 211019.4 9.6 5.4 8.8
2019-Jun-09 20:00N 55°36' W 151°18'3 3.4 060 / 201019.2 9.6 5.3 8.8
2019-Jun-09 19:00N 55°36' W 151°12'6 6.0 060 / 221019.3 9.5 5.1 8.7
2019-Jun-09 18:00N 55°42' W 151°12'7 6.9 070 / 211019.3 9.5 4.4 8.8
2019-Jun-09 17:00N 55°48' W 151°06'0 0.0 060 / 211019.0 9.6 4.1 8.9
2019-Jun-09 16:00N 55°48' W 151°06'7 6.9 060 / 191019.3 9.5 3.8 8.9
2019-Jun-09 15:00N 55°54' W 151°00'7 6.9 070 / 181019.1 9.4 4.0 9.0
2019-Jun-09 14:00N 56°00' W 151°06'6 6.0 070 / 191019.3 9.3 4.0 8.9
2019-Jun-09 13:00N 56°06' W 151°06'3 3.3 080 / 211019.5 9.2 4.0 8.9
2019-Jun-09 12:00N 56°06' W 151°12'6 6.0 060 / 221019.7 9.4 3.5 9.0
2019-Jun-09 11:00N 56°12' W 151°12'7 6.9 080 / 171020.2 9.4 3.3 9.1
2019-Jun-09 10:00N 56°18' W 151°18'0 0.0 080 / 201020.3 9.2 3.7 9.0
2019-Jun-09 09:00N 56°18' W 151°18'7 6.9 080 / 171020.7 9.4 3.3 8.9
2019-Jun-09 08:00N 56°24' W 151°24'7 6.9 080 / 191020.8 9.1 3.3 9.0
2019-Jun-09 07:00N 56°30' W 151°30'6 6.0 080 / 141020.6 9.2 4.9 8.9
2019-Jun-09 06:00N 56°36' W 151°30'3 3.3 070 / 161020.2 9.0 5.2 9.0
2019-Jun-09 05:00N 56°36' W 151°36'6 6.0 080 / 151020.1 8.8 4.8 9.2
2019-Jun-09 04:00N 56°42' W 151°36'7 6.8 080 / 151020.1 8.9 4.1 9.4
2019-Jun-09 03:00N 56°48' W 151°42'3 3.3 080 / 111020.1 8.9 4.0 9.3
2019-Jun-09 02:00N 56°48' W 151°48'6 6.0 090 / 131020.4 8.8 4.0 9.1
2019-Jun-09 01:00N 56°54' W 151°48'7 6.8 080 / 101020.5 8.6 4.0 8.8
2019-Jun-09 00:00N 57°00' W 151°54'0 0.0 090 / 91020.8 8.4 4.0 8.6
2019-Jun-08 23:00N 57°00' W 151°54'7 6.8 120 / 41020.8 12.8 5.9 8.9
2019-Jun-08 22:00N 57°06' W 152°00'6 6.0 140 / 41020.7 10.8 6.7 9.4
2019-Jun-08 21:00N 57°12' W 152°00'7 6.8 150 / 101020.3 10.2 5.8 9.8
2019-Jun-08 20:00N 57°18' W 152°06'7 6.8 170 / 101020.1 8.4 5.210.6
2019-Jun-08 19:00N 57°12' W 152°00'3 3.3 170 / 91019.9 7.9 5.4 9.2
2019-Jun-08 18:00N 57°12' W 151°54'7 6.8 180 / 91019.5 8.0 5.6 9.2
2019-Jun-08 17:00N 57°06' W 152°00'7 6.8 190 / 71018.9 8.5 5.4 9.9
2019-Jun-08 16:00N 57°12' W 152°06'3 3.3 190 / 101018.4 8.2 5.2 9.8
2019-Jun-08 15:00N 57°12' W 152°00'6 6.0 190 / 31018.2 16.810.610.3
2019-Jun-08 14:00N 57°18' W 152°00'3 3.2 210 / 61017.9 10.4 7.610.3
2019-Jun-08 13:00N 57°18' W 151°54'3 3.2 190 / 101017.8 8.2 6.310.4
2019-Jun-08 12:00N 57°18' W 152°00'7 6.8 220 / 101018.0 8.4 6.510.6
2019-Jun-08 11:00N 57°12' W 152°06'0 0.0 210 / 101017.9 8.4 6.510.5
2019-Jun-08 10:00N 57°12' W 152°06'0 0.0 230 / 111017.8 8.2 6.310.5
2019-Jun-08 09:00N 57°12' W 152°06'7 6.8 240 / 101017.7 8.3 6.410.3
2019-Jun-08 08:00N 57°18' W 152°00'6 6.0 220 / 111017.5 8.5 6.610.6
2019-Jun-08 07:00N 57°24' W 152°00'3 3.2 210 / 71017.1 8.4 6.510.7
2019-Jun-08 06:00N 57°24' W 151°54'7 6.8 190 / 111016.8 8.8 6.9 9.9
2019-Jun-08 05:00N 57°30' W 151°48'7 6.8 200 / 71016.5 8.4 6.4 9.1
2019-Jun-08 04:00N 57°36' W 151°54'1111.3 190 / 151016.2 8.4 6.3 9.2
2019-Jun-08 03:00N 57°42' W 152°12'10 9.6 120 / 121016.0 9.6 6.6 8.0
2019-Jun-08 02:00N 57°42' W 152°30'0 0.0 060 / 51016.4 13.0 6.5 8.4
2019-Jun-08 01:00N 57°42' W 152°30'0 0.0 030 / 51016.6 15.3 6.6
2019-Jun-08 00:00N 57°42' W 152°30'0 0.0 090 / 51016.8 16.8 5.9
2019-Jun-07 23:00N 57°42' W 152°30'0 0.0 040 / 61016.8 16.0 5.8
2019-Jun-07 22:00N 57°42' W 152°30'0 0.0 040 / 51016.8 16.1 6.4
2019-Jun-07 21:00N 57°42' W 152°30'0 0.0 090 / 41016.6 15.9 6.7
2019-Jun-07 20:00N 57°42' W 152°30'0 0.0 080 / 61016.4 17.0 6.8
2019-Jun-07 19:00N 57°42' W 152°30'0 0.0 080 / 21016.2 17.0 5.8
2019-Jun-07 18:00N 57°42' W 152°30'0 0.0 030 / 41016.0 16.5 5.4
2019-Jun-07 17:00N 57°42' W 152°30'0 0.0 180 / 11015.8 16.3 6.0
2019-Jun-07 16:00N 57°42' W 152°30'0 0.0 070 / 11015.8 13.5 5.8
2019-Jun-07 15:00N 57°42' W 152°30'0 0.0 260 / 31015.6 11.4 5.7
2019-Jun-07 14:00N 57°42' W 152°30'0 0.0 250 1015.4 10.7 5.8
2019-Jun-07 13:00N 57°42' W 152°30'0 0.0 220 / 21015.4 11.0 6.2
2019-Jun-07 12:00N 57°42' W 152°30'0 0.0 160 / 21015.6 11.3 6.4
2019-Jun-07 11:00N 57°42' W 152°30'0 0.0 330 / 11015.6 11.7 6.9
2019-Jun-07 10:00N 57°42' W 152°30'0 0.0 160 / 11015.8 12.7 6.8
2019-Jun-07 09:00N 57°42' W 152°30'0 0.0 320 / 11015.9 13.9 6.7
2019-Jun-07 08:00N 57°42' W 152°30'0 0.0 240 / 31016.0 15.6 6.0
2019-Jun-07 07:00N 57°42' W 152°30'0 0.0 230 / 11016.0 15.4 7.5
2019-Jun-07 06:00N 57°42' W 152°30'0 0.0 190 / 21015.7 16.8 7.2
2019-Jun-07 05:00N 57°42' W 152°30'0 0.0 360 / 21015.7 17.5 6.9
2019-Jun-07 04:00N 57°42' W 152°30'0 0.0 050 / 51015.5 17.5 6.4
2019-Jun-07 03:00N 57°42' W 152°30'0 0.0 010 / 41015.6 18.0 6.0
2019-Jun-07 02:00N 57°42' W 152°30'0 0.0 050 / 51015.7 17.4 6.0
2019-Jun-07 01:00N 57°42' W 152°30'0 0.0 020 / 41015.9 17.6 6.1
2019-Jun-07 00:00N 57°42' W 152°30'0 0.0 150 / 11016.1 16.9 6.5
2019-Jun-06 23:00N 57°42' W 152°30'0 0.0 050 / 31016.2 16.3 6.7
2019-Jun-06 22:00N 57°42' W 152°30'   080 / 41016.3 16.6 5.8
Track history (hours):
 
Tides and Currents Weather Stations Pressure Air Temp Water Temp Dewpoint Dewpoint Depression Visibility Wind Speed Wind Dir Waves Ship Positions

Oceanographic research ship Marcus G. Langseth (USA)

Detailed information on ship capabilities available from ARCUS's ALIAS (Arctic Logistics Information and Support) project.

Owner: Lamont Doherty Earth Observatory-Columbia University, Palisades, NY. More information available from US FCC via Universal Licensing System and Coast Guard Vessel Documentation Center.

Last reported at 2019-Jun-19 14:00 UTC. Time now 2019-Jun-19 14:46 UTC.
Position N 54°18' W 155°54'.

Length 72 m; draft 6.4 m.

Type: Ship. MMSI: 367059880.

Wind from 250 at 12 knots

Barometer 1023.5 mb
Air temperature 8.7 ° C
Dewpoint 6.5 ° C
Water temperature 8.6 ° C

Date/timePositionNaut miles runAvg speedWind from/ knotsBaromVisibWave heightAir tempDewpointWater temp
2019-Jun-19 14:00N 54°18' W 155°54'4 3.5 250 / 121023.5 8.7 6.5 8.6
2019-Jun-19 13:00N 54°18' W 155°48'7 6.9 250 / 131023.4 8.6 6.4 8.6
2019-Jun-19 12:00N 54°12' W 155°42'7 7.0 250 / 141023.1 8.4 6.2 8.6
2019-Jun-19 11:00N 54°06' W 155°36'6 6.0 250 / 171023.3 8.1 5.8 8.5
2019-Jun-19 10:00N 54°00' W 155°36'4 3.5 260 / 181023.4 8.0 5.5 8.6
2019-Jun-19 09:00N 54°00' W 155°30'4 3.5 250 / 161022.7 8.5 6.1 8.6
2019-Jun-19 08:00N 54°00' W 155°24'9 9.3 250 / 201022.6 8.9 6.2 8.5
2019-Jun-19 07:00N 54°06' W 155°12'4 3.5 250 / 181022.0 9.2 6.5 8.6
2019-Jun-19 06:00N 54°06' W 155°06'6 6.0 260 / 151021.6 9.1 6.5 8.7
2019-Jun-19 05:00N 54°12' W 155°06'7 6.9 250 / 151021.0 8.7 6.4 8.7
2019-Jun-19 04:00N 54°18' W 155°12'0 0.0 250 / 201020.2 8.6 6.2 8.7
2019-Jun-19 03:00N 54°18' W 155°12'7 6.9 250 / 211019.7 8.7 6.3 8.8
2019-Jun-19 02:00N 54°24' W 155°18'7 6.9 260 / 201019.2 8.8 6.4 8.9
2019-Jun-19 01:00N 54°30' W 155°24'7 6.9 250 / 211018.7 8.9 6.4 8.8
2019-Jun-19 00:00N 54°36' W 155°30'0 0.0 260 / 171018.1 9.4 6.6 8.8
2019-Jun-18 23:00N 54°36' W 155°30'7 6.9 260 / 161017.4 9.4 6.7 8.7
2019-Jun-18 22:00N 54°42' W 155°36'7 6.9 240 / 161016.8 9.4 6.7 8.8
2019-Jun-18 21:00N 54°48' W 155°42'6 6.0 240 / 151015.9 9.3 6.8 8.9
2019-Jun-18 20:00N 54°54' W 155°42'7 6.9 240 / 151015.4 9.1 6.8 9.1
2019-Jun-18 19:00N 55°00' W 155°48'3 3.4 250 / 151015.0 9.1 6.7 8.8
2019-Jun-18 18:00N 55°00' W 155°54'7 6.9 240 / 151014.0 9.6 6.9 8.9
2019-Jun-18 17:00N 55°06' W 156°00'6 6.0 260 / 121013.6 9.9 7.0 9.1
2019-Jun-18 16:00N 55°12' W 156°00'7 6.9 250 / 121013.0 9.9 7.0 9.1
2019-Jun-18 15:00N 55°18' W 156°06'7 6.9 260 / 101012.2 9.7 6.9 9.3
2019-Jun-18 14:00N 55°24' W 156°12'7 6.9 270 / 121011.5 9.9 7.1 9.3
2019-Jun-18 13:00N 55°30' W 156°18'0 0.0 270 / 111011.1 9.7 7.0 9.1
2019-Jun-18 12:00N 55°30' W 156°18'7 6.9 280 / 101010.5 10.1 6.7 9.3
2019-Jun-18 11:00N 55°36' W 156°24'7 6.9 280 / 111009.8 10.2 6.8 9.3
2019-Jun-18 10:00N 55°42' W 156°30'0 0.0 280 / 131009.2 10.2 6.7 9.0
2019-Jun-18 09:00N 55°42' W 156°30'7 6.9 280 / 131008.6 10.0 6.7 9.1
2019-Jun-18 08:00N 55°48' W 156°36'6 6.0 310 / 141008.3 10.4 6.4 8.7
2019-Jun-18 07:00N 55°54' W 156°36'7 6.9 300 / 141007.5 10.6 6.8 9.7
2019-Jun-18 06:00N 56°00' W 156°30'6 6.0 290 / 131006.9 11.7 6.4 9.4
2019-Jun-18 05:00N 56°06' W 156°30'7 6.9 290 / 131006.2 11.7 6.3 9.6
2019-Jun-18 04:00N 56°12' W 156°36'0 0.0 310 / 131006.0 12.6 6.3 9.3
2019-Jun-18 03:00N 56°12' W 156°36'6 6.0 290 / 81005.5 10.9 6.7 9.4
2019-Jun-18 02:00N 56°18' W 156°36'6 6.0 230 / 51005.2 11.1 6.6 9.6
2019-Jun-18 01:00N 56°24' W 156°36'3 3.3 300 / 101004.8 13.1 5.0 9.6
2019-Jun-18 00:00N 56°24' W 156°30'6 6.0 310 / 71004.4 17.8 8.0 9.2
2019-Jun-17 23:00N 56°18' W 156°30'7 6.9 310 / 111004.1 11.2 6.2 9.2
2019-Jun-17 22:00N 56°12' W 156°24'7 6.9 340 / 101003.9 11.0 6.5 9.4
2019-Jun-17 21:00N 56°06' W 156°18'3 3.3 320 / 151003.4 10.5 6.0 9.5
2019-Jun-17 20:00N 56°06' W 156°12'7 6.9 310 / 181002.8 10.3 6.110.1
2019-Jun-17 19:00N 56°00' W 156°06'6 6.0 340 / 181002.8 10.5 5.8 9.0
2019-Jun-17 18:00N 55°54' W 156°06'7 6.9 1002.5 10.1 6.0 8.4
2019-Jun-17 17:00N 55°48' W 156°00'7 6.9 360 / 211001.9 9.5 6.7 8.9
2019-Jun-17 16:00N 55°42' W 155°54'0 0.0 010 / 131001.9 9.1 6.7 8.6
2019-Jun-17 15:00N 55°42' W 155°54'7 6.9 1001.7 9.0 6.6 8.9
2019-Jun-17 14:00N 55°36' W 155°48'7 6.9 350 / 181001.3 9.0 6.6 9.3
2019-Jun-17 13:00N 55°30' W 155°42'0 0.0 350 / 191000.9 8.9 6.3 9.3
2019-Jun-17 12:00N 55°30' W 155°42'7 6.9 350 / 241000.7 8.9 6.2 9.3
2019-Jun-17 11:00N 55°24' W 155°36'7 6.9 340 / 181000.7 9.2 6.5 9.3
2019-Jun-17 10:00N 55°18' W 155°30'7 6.9 350 / 171000.8 9.2 6.4 9.2
2019-Jun-17 09:00N 55°12' W 155°24'0 0.0 360 / 201001.0 8.8 6.1 9.1
2019-Jun-17 08:00N 55°12' W 155°24'7 6.9 010 / 131001.1 8.8 6.4 8.8
2019-Jun-17 07:00N 55°06' W 155°18'7 6.9 020 / 161001.0 8.9 6.5 8.8
2019-Jun-17 06:00N 55°00' W 155°12'6 6.0 020 / 111001.1 8.8 6.3 8.9
2019-Jun-17 05:00N 54°54' W 155°12'7 6.9 020 / 141001.2 8.7 6.1 9.0
2019-Jun-17 04:00N 54°48' W 155°06'7 6.9 040 / 131001.1 8.8 6.3 9.0
2019-Jun-17 03:00N 54°42' W 155°00'0 0.0 050 / 161000.9 8.8 6.5 8.9
2019-Jun-17 02:00N 54°42' W 155°00'7 6.9 060 / 131001.0 8.8 6.4 8.7
2019-Jun-17 01:00N 54°36' W 154°54'7 6.9 060 / 111001.1 8.9 6.4 8.6
2019-Jun-17 00:00N 54°30' W 154°48'7 6.9 040 / 131000.9 8.6 6.3 8.6
2019-Jun-16 23:00N 54°24' W 154°42'6 6.0 040 / 111000.9 8.8 6.0 8.6
2019-Jun-16 22:00N 54°18' W 154°42'4 3.5 060 / 111001.0 8.7 6.1 8.7
2019-Jun-16 21:00N 54°18' W 154°36'4 3.5 060 / 131000.9 8.6 6.0 8.6
2019-Jun-16 20:00N 54°18' W 154°30'7 7.0 060 / 151001.1 8.7 5.9 8.6
2019-Jun-16 19:00N 54°18' W 154°18'7 6.9 060 / 151001.1 8.7 5.7 8.5
2019-Jun-16 18:00N 54°24' W 154°12'3 3.5 070 / 131001.1 8.7 5.8 8.6
2019-Jun-16 17:00N 54°24' W 154°06'7 6.9 070 / 131000.9 8.6 5.9 8.7
2019-Jun-16 16:00N 54°18' W 154°00'6 6.0 080 / 141000.9 8.6 5.9 8.7
2019-Jun-16 15:00N 54°12' W 154°00'4 3.5 090 / 131000.9 8.5 5.6 8.7
2019-Jun-16 14:00N 54°12' W 153°54'6 6.0 100 / 141001.0 8.6 6.0 8.7
2019-Jun-16 13:00N 54°06' W 153°54'0 0.0 100 / 141000.9 8.8 6.4 8.6
2019-Jun-16 12:00N 54°06' W 153°54'6 6.0 100 / 201001.1 8.9 6.3 8.6
2019-Jun-16 11:00N 54°12' W 153°54'4 3.5 100 / 191001.2 9.0 6.4 8.7
2019-Jun-16 10:00N 54°12' W 154°00'0 0.0 100 / 211001.5 9.0 6.2 8.7
2019-Jun-16 09:00N 54°12' W 154°00'7 6.9 100 / 211001.6 9.1 6.6 8.7
2019-Jun-16 08:00N 54°18' W 154°06'6 6.0 100 / 181002.0 9.1 6.7 8.7
2019-Jun-16 07:00N 54°24' W 154°06'7 6.9 100 / 181002.1 9.1 6.5 8.7
2019-Jun-16 06:00N 54°30' W 154°12'3 3.5 100 / 181002.2 9.1 6.5 8.6
2019-Jun-16 05:00N 54°30' W 154°18'6 6.0 100 / 191002.3 9.0 6.4 8.8
2019-Jun-16 04:00N 54°36' W 154°18'7 6.9 100 / 171002.8 9.0 6.2 9.0
2019-Jun-16 03:00N 54°42' W 154°24'7 6.9 100 / 171003.3 9.2 6.4 8.7
2019-Jun-16 02:00N 54°48' W 154°30'6 6.0 110 / 141003.6 9.1 6.1 8.8
2019-Jun-16 01:00N 54°54' W 154°30'3 3.5 120 / 151003.7 9.0 5.9 8.8
2019-Jun-16 00:00N 54°54' W 154°36'7 6.9 120 / 141003.7 8.9 5.7 8.9
2019-Jun-15 23:00N 55°00' W 154°42'6 6.0 120 / 141004.1 9.4 5.4 8.8
2019-Jun-15 22:00N 55°06' W 154°42'7 6.9 120 / 151003.9 9.9 6.2 8.7
2019-Jun-15 21:00N 55°12' W 154°48'7 6.9 130 / 131004.1 10.3 6.1 8.7
2019-Jun-15 20:00N 55°18' W 154°54'3 3.4 140 / 111003.8 9.6 6.1 8.9
2019-Jun-15 19:00N 55°18' W 155°00'6 6.0 130 / 81003.8 10.6 7.4 9.2
2019-Jun-15 18:00N 55°24' W 155°00'7 6.9 150 / 111003.6 9.8 6.4 8.9
2019-Jun-15 17:00N 55°30' W 155°06'7 6.9 130 / 131003.4 9.6 7.2 9.2
2019-Jun-15 16:00N 55°36' W 155°12'7 6.9 130 / 181003.1 9.2 6.1 9.0
2019-Jun-15 15:00N 55°42' W 155°18'7 6.9 120 / 161003.2 8.7 6.4 9.1
2019-Jun-15 14:00N 55°48' W 155°24'7 6.9 130 / 151003.5 8.8 6.3 8.3
2019-Jun-15 13:00N 55°54' W 155°18'7 6.9 120 / 171003.8 9.1 5.8 8.1
2019-Jun-15 12:00N 56°00' W 155°24'7 6.9 100 / 151004.0 9.0 5.9 7.9
2019-Jun-15 11:00N 56°06' W 155°30'9 9.0 120 / 101004.0 9.8 6.3 7.1
2019-Jun-15 10:00N 56°12' W 155°42'3 3.3 100 / 171004.0 8.5 5.7 7.2
2019-Jun-15 09:00N 56°12' W 155°48'6 6.0 100 / 171004.3 8.5 5.7 7.9
2019-Jun-15 08:00N 56°18' W 155°48'7 6.9 100 / 181004.3 9.0 6.110.2
2019-Jun-15 07:00N 56°24' W 155°54'7 6.9 100 / 201004.2 9.2 6.310.6
2019-Jun-15 06:00N 56°30' W 156°00'7 6.9 100 / 201004.1 9.4 6.1 9.2
2019-Jun-15 05:00N 56°36' W 156°06'3 3.3 110 / 181004.3 9.5 6.2 9.7
2019-Jun-15 04:00N 56°36' W 156°00'9 8.9 110 / 161004.5 9.4 6.310.4
2019-Jun-15 03:00N 56°42' W 155°48'3 3.3 130 / 171004.9 9.4 6.6 9.6
2019-Jun-15 02:00N 56°42' W 155°42'3 3.3 140 / 191005.0 9.2 6.9 9.3
2019-Jun-15 01:00N 56°42' W 155°36'7 6.8 100 / 231004.1 9.4 7.4 9.4
2019-Jun-15 00:00N 56°36' W 155°30'7 6.9 100 / 241003.9 9.5 7.3 8.8
2019-Jun-14 23:00N 56°30' W 155°24'0 0.0 100 / 271003.3 9.5 7.2 8.0
2019-Jun-14 22:00N 56°30' W 155°24'7 6.9 090 / 331002.6 9.5 7.3 8.4
2019-Jun-14 21:00N 56°24' W 155°18'7 6.9 090 / 351002.7 9.4 7.1 8.9
2019-Jun-14 20:00N 56°18' W 155°12'7 6.9 090 / 321002.5 9.2 6.8 8.8
2019-Jun-14 19:00N 56°12' W 155°06'7 6.9 090 / 311002.5 9.1 6.7 8.3
2019-Jun-14 18:00N 56°06' W 155°00'7 6.9 090 / 291003.1 9.4 6.6 8.6
2019-Jun-14 17:00N 56°00' W 154°54'7 6.9 090 / 351003.3 9.4 6.8 9.1
2019-Jun-14 16:00N 55°54' W 154°48'6 6.0 080 / 321003.8 9.5 6.8 9.2
2019-Jun-14 15:00N 55°48' W 154°48'7 6.9 090 / 311004.7 9.4 6.8 9.1
2019-Jun-14 14:00N 55°42' W 154°42'3 3.4 090 / 281005.3 9.3 7.0 9.3
2019-Jun-14 13:00N 55°42' W 154°36'7 6.9 090 / 241005.9 9.1 7.0 9.2
2019-Jun-14 12:00N 55°36' W 154°30'6 6.0 090 / 251006.1 9.2 7.0 9.0
2019-Jun-14 11:00N 55°30' W 154°30'7 6.9 100 / 261006.6 9.1 6.9 8.8
2019-Jun-14 10:00N 55°24' W 154°24'7 6.9 100 / 251007.1 9.2 6.9 8.8
2019-Jun-14 09:00N 55°18' W 154°18'6 6.0 110 / 251007.6 9.1 6.8 8.5
2019-Jun-14 08:00N 55°12' W 154°18'3 3.4 110 / 241007.9 9.1 6.9 8.5
2019-Jun-14 07:00N 55°12' W 154°12'7 6.9 110 / 241008.0 9.0 6.8 8.5
2019-Jun-14 06:00N 55°06' W 154°06'7 6.9 110 / 251008.1 9.0 6.9 8.5
2019-Jun-14 05:00N 55°00' W 154°00'6 6.0 110 / 231008.5 9.0 6.9 9.1
2019-Jun-14 04:00N 54°54' W 154°00'7 6.9 110 / 221009.1 9.0 6.7 9.1
2019-Jun-14 03:00N 54°48' W 153°54'7 6.9 120 / 251009.6 9.1 6.5 8.6
2019-Jun-14 02:00N 54°42' W 153°48'7 6.9 110 / 261009.7 9.1 6.4 9.0
2019-Jun-14 01:00N 54°36' W 153°42'6 6.0 110 / 251010.1 9.0 6.3 9.0
2019-Jun-14 00:00N 54°30' W 153°42'7 7.0 120 / 231010.6 8.9 6.1 8.9
2019-Jun-13 23:00N 54°30' W 153°30'7 6.9 120 / 201011.6 9.1 5.5 9.1
2019-Jun-13 22:00N 54°36' W 153°24'3 3.5 120 / 171012.1 9.0 5.4 9.3
2019-Jun-13 21:00N 54°36' W 153°18'7 6.9 140 / 211012.5 9.0 5.2 9.4
2019-Jun-13 20:00N 54°42' W 153°12'0 0.0 150 / 161012.4 8.7 5.0 9.4
2019-Jun-13 19:00N 54°42' W 153°12'7 6.9 130 / 171012.2 8.7 5.6 9.2
2019-Jun-13 18:00N 54°48' W 153°18'7 6.9 140 / 121012.3 9.8 6.8 9.3
2019-Jun-13 17:00N 54°54' W 153°24'6 6.0 140 / 121012.5 11.8 6.6 9.5
2019-Jun-13 16:00N 55°00' W 153°24'3 3.4 170 / 121013.0 9.2 6.5 9.4
2019-Jun-13 15:00N 55°00' W 153°30'7 6.9 180 / 111013.0 9.4 7.3 9.1
2019-Jun-13 14:00N 55°06' W 153°36'6 6.0 170 / 81013.0 8.8 6.6 9.0
2019-Jun-13 13:00N 55°12' W 153°36'7 6.9 130 / 31012.9 26.311.9 8.9
2019-Jun-13 12:00N 55°18' W 153°42'7 6.9 140 / 71013.1 15.1 9.7 9.3
2019-Jun-13 11:00N 55°24' W 153°48'0 0.0 130 / 101013.0 11.4 9.2 9.4
2019-Jun-13 10:00N 55°24' W 153°48'7 6.9 130 / 101013.0 10.0 8.1 9.2
2019-Jun-13 09:00N 55°30' W 153°54'7 6.9 090 / 81013.0 9.6 7.3 9.0
2019-Jun-13 08:00N 55°36' W 154°00'6 6.0 140 / 41013.0 18.7 9.0 8.8
2019-Jun-13 07:00N 55°42' W 154°00'7 6.9 110 / 61012.8 18.0 9.4 9.1
2019-Jun-13 06:00N 55°48' W 154°06'3 3.4 130 / 41012.6 27.411.9 9.3
2019-Jun-13 05:00N 55°48' W 154°12'6 6.0 160 / 51012.7 30.213.5 9.6
2019-Jun-13 04:00N 55°54' W 154°12'7 6.9 200 / 51012.6 9.6 7.5 9.5
2019-Jun-13 03:00N 56°00' W 154°18'7 6.9 160 / 51012.7 9.5 7.1 9.1
2019-Jun-13 02:00N 56°06' W 154°24'0 0.0 100 / 51012.3 28.712.8 9.2
2019-Jun-13 01:00N 56°06' W 154°24'6 6.0 100 / 71012.4 10.5 7.4 9.2
2019-Jun-13 00:00N 56°12' W 154°24'3 3.3 140 / 71012.9 9.6 7.5 9.6
2019-Jun-12 23:00N 56°12' W 154°18'9 9.0 130 / 71013.0 9.6 7.5 9.3
2019-Jun-12 22:00N 56°18' W 154°06'3 3.3 120 / 71012.9 9.5 7.4 9.4
2019-Jun-12 21:00N 56°18' W 154°00'7 6.9 090 / 91012.4 9.4 7.5 9.3
2019-Jun-12 20:00N 56°12' W 153°54'7 6.9 080 / 81012.2 9.3 7.4 9.1
2019-Jun-12 19:00N 56°06' W 153°48'6 6.0 060 / 101011.6 9.2 7.3 9.0
2019-Jun-12 18:00N 56°00' W 153°48'3 3.4 060 / 121011.4 9.1 7.2 9.3
2019-Jun-12 17:00N 56°00' W 153°42'7 6.9 060 / 81011.2 9.2 7.4 9.3
2019-Jun-12 16:00N 55°54' W 153°36'7 6.9 030 / 111010.8 9.3 7.5 9.2
2019-Jun-12 15:00N 55°48' W 153°30'6 6.0 040 / 131010.4 9.4 7.5 9.0
2019-Jun-12 14:00N 55°42' W 153°30'7 6.9 020 / 111010.4 9.4 7.5 8.7
2019-Jun-12 13:00N 55°36' W 153°24'3 3.4 360 / 121010.2 9.3 7.5 8.8
2019-Jun-12 12:00N 55°36' W 153°18'6 6.0 360 / 91010.2 9.2 7.4 8.8
2019-Jun-12 11:00N 55°30' W 153°18'7 6.9 040 / 101010.1 9.3 7.5 9.0
2019-Jun-12 10:00N 55°24' W 153°12'7 6.9 030 / 131009.8 9.3 7.5 8.7
2019-Jun-12 09:00N 55°18' W 153°06'7 6.9 030 / 161009.0 9.3 7.5 8.7
2019-Jun-12 08:00N 55°12' W 153°00'6 6.0 020 / 151008.6 9.3 7.5 8.7
2019-Jun-12 07:00N 55°06' W 153°00'3 3.4 020 / 131008.2 9.2 7.4 8.7
2019-Jun-12 06:00N 55°06' W 152°54'7 6.9 020 / 121007.9 9.2 7.3 8.5
2019-Jun-12 05:00N 55°00' W 152°48'6 6.0 010 / 151007.6 9.2 7.3 8.7
2019-Jun-12 04:00N 54°54' W 152°48'7 6.9 360 / 121007.3 9.3 7.4 8.7
2019-Jun-12 03:00N 54°48' W 152°42'3 3.5 350 / 121007.3 9.3 7.4 8.7
2019-Jun-12 02:00N 54°48' W 152°36'7 6.9 360 / 121007.4 9.4 7.4 8.7
2019-Jun-12 01:00N 54°48' W 152°24'7 6.9 010 / 131007.4 9.5 7.5 8.7
2019-Jun-12 00:00N 54°54' W 152°18'3 3.5 010 / 141007.4 9.6 7.5 8.9
2019-Jun-11 23:00N 54°54' W 152°12'7 6.9 020 / 131007.1 9.6 7.5 8.8
2019-Jun-11 22:00N 55°00' W 152°18'7 6.9 010 / 141007.3 9.6 7.5 8.8
2019-Jun-11 21:00N 55°06' W 152°24'6 6.0 010 / 151007.2 9.5 7.3 8.8
2019-Jun-11 20:00N 55°12' W 152°24'7 6.9 010 / 161007.0 9.5 7.3 8.7
2019-Jun-11 19:00N 55°18' W 152°30'7 6.9 020 / 201006.8 9.5 7.2 9.0
2019-Jun-11 18:00N 55°24' W 152°36'7 6.9 020 / 191006.5 9.5 7.1 9.0
2019-Jun-11 17:00N 55°30' W 152°42'6 6.0 020 / 191006.6 9.4 7.0 9.0
2019-Jun-11 16:00N 55°36' W 152°42'3 3.4 030 / 191006.6 9.5 7.0 9.1
2019-Jun-11 15:00N 55°36' W 152°48'7 6.9 020 / 181006.8 9.4 6.9 9.0
2019-Jun-11 14:00N 55°42' W 152°54'6 6.0 030 / 211006.9 9.4 6.8 9.0
2019-Jun-11 13:00N 55°48' W 152°54'7 6.9 040 / 211007.2 9.3 6.7 8.9
2019-Jun-11 12:00N 55°54' W 153°00'7 6.9 040 / 191007.7 9.4 6.8 8.9
2019-Jun-11 11:00N 56°00' W 153°06'0 0.0 030 / 191007.9 9.3 6.4 8.7
2019-Jun-11 10:00N 56°00' W 153°06'7 6.9 030 / 231008.4 9.4 6.2 8.8
2019-Jun-11 09:00N 56°06' W 153°12'7 6.9 040 / 271008.9 9.8 5.8 8.9
2019-Jun-11 08:00N 56°12' W 153°18'6 6.0 040 / 231009.2 9.9 5.7 9.0
2019-Jun-11 07:00N 56°18' W 153°18'3 3.3 040 / 231009.7 9.9 5.7 9.1
2019-Jun-11 06:00N 56°18' W 153°24'6 6.0 040 / 231010.1 9.7 5.5 8.4
2019-Jun-11 05:00N 56°24' W 153°24'7 6.9 040 / 251010.5 10.0 5.3 8.6
2019-Jun-11 04:00N 56°30' W 153°30'0 0.0 050 / 251010.8 10.1 5.4 8.6
2019-Jun-11 03:00N 56°30' W 153°30'9 8.9 050 / 301011.2 10.3 5.5 8.9
2019-Jun-11 02:00N 56°36' W 153°18'3 3.3 050 / 291011.5 10.3 5.6 9.5
2019-Jun-11 01:00N 56°36' W 153°12'7 6.6 040 / 311011.7 10.0 5.4 9.9
2019-Jun-11 00:00N 56°36' W 153°00'0 0.0 050 / 351012.3 9.6 5.4 9.4
2019-Jun-10 23:00N 56°36' W 153°00'7 6.9 040 / 281012.7 9.7 5.5 9.6
2019-Jun-10 22:00N 56°30' W 152°54'7 6.9 050 / 281013.2 9.7 5.4 9.4
2019-Jun-10 21:00N 56°24' W 152°48'6 6.0 040 / 321013.3 9.5 5.3 9.2
2019-Jun-10 20:00N 56°18' W 152°48'7 6.9 040 / 251013.4 9.4 5.4 9.3
2019-Jun-10 19:00N 56°12' W 152°42'3 3.3 040 / 321013.5 9.3 5.8 9.3
2019-Jun-10 18:00N 56°12' W 152°36'6 6.0 040 / 251013.7 9.3 5.7 9.0
2019-Jun-10 17:00N 56°06' W 152°36'7 6.9 050 / 261013.6 9.3 5.3 9.1
2019-Jun-10 16:00N 56°00' W 152°30'7 6.9 050 / 261013.7 9.2 5.3 9.2
2019-Jun-10 15:00N 55°54' W 152°24'0 0.0 050 / 251013.9 9.1 5.7 9.2
2019-Jun-10 14:00N 55°54' W 152°24'7 6.9 050 / 231014.2 9.1 5.9 9.2
2019-Jun-10 13:00N 55°48' W 152°18'6 6.0 050 / 261014.4 9.2 6.0 9.2
2019-Jun-10 12:00N 55°42' W 152°18'3 3.4 050 / 251015.0 9.4 6.1 9.2
2019-Jun-10 11:00N 55°42' W 152°12'6 6.0 060 / 231015.5 9.4 5.7 9.1
2019-Jun-10 10:00N 55°36' W 152°12'7 6.9 070 / 251015.8 9.4 5.6 9.1
2019-Jun-10 09:00N 55°30' W 152°06'0 0.0 060 / 241016.1 9.4 6.1 9.0
2019-Jun-10 08:00N 55°30' W 152°06'7 6.9 060 / 261016.0 9.3 6.4 9.0
2019-Jun-10 07:00N 55°24' W 152°00'7 6.9 060 / 251016.3 9.4 6.4 8.9
2019-Jun-10 06:00N 55°18' W 151°54'6 6.0 060 / 251015.7 9.5 6.4 9.1
2019-Jun-10 05:00N 55°12' W 151°54'3 3.4 060 / 251015.6 9.5 6.2 9.1
2019-Jun-10 04:00N 55°12' W 151°48'6 6.0 060 / 261015.6 9.5 6.3 8.9
2019-Jun-10 03:00N 55°06' W 151°48'3 3.4 060 / 211016.4 9.5 6.2 9.0
2019-Jun-10 02:00N 55°06' W 151°42'7 6.9 060 / 231017.0 9.6 5.8 8.9
2019-Jun-10 01:00N 55°12' W 151°36'7 6.9 060 / 211017.7 9.6 5.8 8.9
2019-Jun-10 00:00N 55°18' W 151°30'0 0.0 060 / 231018.2 9.6 5.7 8.9
2019-Jun-09 23:00N 55°18' W 151°30'7 6.9 060 / 221018.8 9.6 5.2 8.8
2019-Jun-09 22:00N 55°24' W 151°24'6 6.0 060 / 181019.2 9.7 5.0 8.8
2019-Jun-09 21:00N 55°30' W 151°24'7 6.9 060 / 211019.4 9.6 5.4 8.8
2019-Jun-09 20:00N 55°36' W 151°18'3 3.4 060 / 201019.2 9.6 5.3 8.8
2019-Jun-09 19:00N 55°36' W 151°12'6 6.0 060 / 221019.3 9.5 5.1 8.7
2019-Jun-09 18:00N 55°42' W 151°12'7 6.9 070 / 211019.3 9.5 4.4 8.8
2019-Jun-09 17:00N 55°48' W 151°06'0 0.0 060 / 211019.0 9.6 4.1 8.9
2019-Jun-09 16:00N 55°48' W 151°06'7 6.9 060 / 191019.3 9.5 3.8 8.9
2019-Jun-09 15:00N 55°54' W 151°00'7 6.9 070 / 181019.1 9.4 4.0 9.0
2019-Jun-09 14:00N 56°00' W 151°06'6 6.0 070 / 191019.3 9.3 4.0 8.9
2019-Jun-09 13:00N 56°06' W 151°06'3 3.3 080 / 211019.5 9.2 4.0 8.9
2019-Jun-09 12:00N 56°06' W 151°12'6 6.0 060 / 221019.7 9.4 3.5 9.0
2019-Jun-09 11:00N 56°12' W 151°12'7 6.9 080 / 171020.2 9.4 3.3 9.1
2019-Jun-09 10:00N 56°18' W 151°18'0 0.0 080 / 201020.3 9.2 3.7 9.0
2019-Jun-09 09:00N 56°18' W 151°18'7 6.9 080 / 171020.7 9.4 3.3 8.9
2019-Jun-09 08:00N 56°24' W 151°24'7 6.9 080 / 191020.8 9.1 3.3 9.0
2019-Jun-09 07:00N 56°30' W 151°30'6 6.0 080 / 141020.6 9.2 4.9 8.9
2019-Jun-09 06:00N 56°36' W 151°30'3 3.3 070 / 161020.2 9.0 5.2 9.0
2019-Jun-09 05:00N 56°36' W 151°36'6 6.0 080 / 151020.1 8.8 4.8 9.2
2019-Jun-09 04:00N 56°42' W 151°36'7 6.8 080 / 151020.1 8.9 4.1 9.4
2019-Jun-09 03:00N 56°48' W 151°42'3 3.3 080 / 111020.1 8.9 4.0 9.3
2019-Jun-09 02:00N 56°48' W 151°48'6 6.0 090 / 131020.4 8.8 4.0 9.1
2019-Jun-09 01:00N 56°54' W 151°48'7 6.8 080 / 101020.5 8.6 4.0 8.8
2019-Jun-09 00:00N 57°00' W 151°54'0 0.0 090 / 91020.8 8.4 4.0 8.6
2019-Jun-08 23:00N 57°00' W 151°54'7 6.8 120 / 41020.8 12.8 5.9 8.9
2019-Jun-08 22:00N 57°06' W 152°00'6 6.0 140 / 41020.7 10.8 6.7 9.4
2019-Jun-08 21:00N 57°12' W 152°00'7 6.8 150 / 101020.3 10.2 5.8 9.8
2019-Jun-08 20:00N 57°18' W 152°06'7 6.8 170 / 101020.1 8.4 5.210.6
2019-Jun-08 19:00N 57°12' W 152°00'3 3.3 170 / 91019.9 7.9 5.4 9.2
2019-Jun-08 18:00N 57°12' W 151°54'7 6.8 180 / 91019.5 8.0 5.6 9.2
2019-Jun-08 17:00N 57°06' W 152°00'7 6.8 190 / 71018.9 8.5 5.4 9.9
2019-Jun-08 16:00N 57°12' W 152°06'3 3.3 190 / 101018.4 8.2 5.2 9.8
2019-Jun-08 15:00N 57°12' W 152°00'6 6.0 190 / 31018.2 16.810.610.3
2019-Jun-08 14:00N 57°18' W 152°00'3 3.2 210 / 61017.9 10.4 7.610.3
2019-Jun-08 13:00N 57°18' W 151°54'3 3.2 190 / 101017.8 8.2 6.310.4
2019-Jun-08 12:00N 57°18' W 152°00'7 6.8 220 / 101018.0 8.4 6.510.6
2019-Jun-08 11:00N 57°12' W 152°06'0 0.0 210 / 101017.9 8.4 6.510.5
2019-Jun-08 10:00N 57°12' W 152°06'0 0.0 230 / 111017.8 8.2 6.310.5
2019-Jun-08 09:00N 57°12' W 152°06'7 6.8 240 / 101017.7 8.3 6.410.3
2019-Jun-08 08:00N 57°18' W 152°00'6 6.0 220 / 111017.5 8.5 6.610.6
2019-Jun-08 07:00N 57°24' W 152°00'3 3.2 210 / 71017.1 8.4 6.510.7
2019-Jun-08 06:00N 57°24' W 151°54'7 6.8 190 / 111016.8 8.8 6.9 9.9
2019-Jun-08 05:00N 57°30' W 151°48'7 6.8 200 / 71016.5 8.4 6.4 9.1
2019-Jun-08 04:00N 57°36' W 151°54'1111.3 190 / 151016.2 8.4 6.3 9.2
2019-Jun-08 03:00N 57°42' W 152°12'10 9.6 120 / 121016.0 9.6 6.6 8.0
2019-Jun-08 02:00N 57°42' W 152°30'0 0.0 060 / 51016.4 13.0 6.5 8.4
2019-Jun-08 01:00N 57°42' W 152°30'0 0.0 030 / 51016.6 15.3 6.6
2019-Jun-08 00:00N 57°42' W 152°30'0 0.0 090 / 51016.8 16.8 5.9
2019-Jun-07 23:00N 57°42' W 152°30'0 0.0 040 / 61016.8 16.0 5.8
2019-Jun-07 22:00N 57°42' W 152°30'0 0.0 040 / 51016.8 16.1 6.4
2019-Jun-07 21:00N 57°42' W 152°30'0 0.0 090 / 41016.6 15.9 6.7
2019-Jun-07 20:00N 57°42' W 152°30'0 0.0 080 / 61016.4 17.0 6.8
2019-Jun-07 19:00N 57°42' W 152°30'0 0.0 080 / 21016.2 17.0 5.8
2019-Jun-07 18:00N 57°42' W 152°30'0 0.0 030 / 41016.0 16.5 5.4
2019-Jun-07 17:00N 57°42' W 152°30'0 0.0 180 / 11015.8 16.3 6.0
2019-Jun-07 16:00N 57°42' W 152°30'0 0.0 070 / 11015.8 13.5 5.8
2019-Jun-07 15:00N 57°42' W 152°30'0 0.0 260 / 31015.6 11.4 5.7
2019-Jun-07 14:00N 57°42' W 152°30'0 0.0 250 1015.4 10.7 5.8
2019-Jun-07 13:00N 57°42' W 152°30'0 0.0 220 / 21015.4 11.0 6.2
2019-Jun-07 12:00N 57°42' W 152°30'0 0.0 160 / 21015.6 11.3 6.4
2019-Jun-07 11:00N 57°42' W 152°30'0 0.0 330 / 11015.6 11.7 6.9
2019-Jun-07 10:00N 57°42' W 152°30'0 0.0 160 / 11015.8 12.7 6.8
2019-Jun-07 09:00N 57°42' W 152°30'0 0.0 320 / 11015.9 13.9 6.7
2019-Jun-07 08:00N 57°42' W 152°30'0 0.0 240 / 31016.0 15.6 6.0
2019-Jun-07 07:00N 57°42' W 152°30'0 0.0 230 / 11016.0 15.4 7.5
2019-Jun-07 06:00N 57°42' W 152°30'0 0.0 190 / 21015.7 16.8 7.2
2019-Jun-07 05:00N 57°42' W 152°30'0 0.0 360 / 21015.7 17.5 6.9
2019-Jun-07 04:00N 57°42' W 152°30'0 0.0 050 / 51015.5 17.5 6.4
2019-Jun-07 03:00N 57°42' W 152°30'0 0.0 010 / 41015.6 18.0 6.0
2019-Jun-07 02:00N 57°42' W 152°30'0 0.0 050 / 51015.7 17.4 6.0
2019-Jun-07 01:00N 57°42' W 152°30'0 0.0 020 / 41015.9 17.6 6.1
2019-Jun-07 00:00N 57°42' W 152°30'0 0.0 150 / 11016.1 16.9 6.5
2019-Jun-06 23:00N 57°42' W 152°30'0 0.0 050 / 31016.2 16.3 6.7
2019-Jun-06 22:00N 57°42' W 152°30'   080 / 41016.3 16.6 5.8

Dump ship's entire track history